sensor_id;sensor_type;location;lat;lon;timestamp;temperature;humidity
21169;DHT22;10742;51.816;8.662;2023-03-14T00:02:02;15.50;91.30
21169;DHT22;10742;51.816;8.662;2023-03-14T00:05:05;15.50;91.40
21169;DHT22;10742;51.816;8.662;2023-03-14T00:08:10;15.50;91.30
21169;DHT22;10742;51.816;8.662;2023-03-14T00:11:18;15.50;91.30
21169;DHT22;10742;51.816;8.662;2023-03-14T00:14:21;15.60;91.20
21169;DHT22;10742;51.816;8.662;2023-03-14T00:17:23;15.60;91.20
21169;DHT22;10742;51.816;8.662;2023-03-14T00:20:26;15.60;91.20
21169;DHT22;10742;51.816;8.662;2023-03-14T00:23:30;15.60;91.20
21169;DHT22;10742;51.816;8.662;2023-03-14T00:26:32;15.60;91.20
21169;DHT22;10742;51.816;8.662;2023-03-14T00:29:34;15.60;91.10
21169;DHT22;10742;51.816;8.662;2023-03-14T00:32:37;15.60;91.10
21169;DHT22;10742;51.816;8.662;2023-03-14T00:35:39;15.70;91.10
21169;DHT22;10742;51.816;8.662;2023-03-14T00:38:42;15.70;91.10
21169;DHT22;10742;51.816;8.662;2023-03-14T00:41:45;15.70;91.00
21169;DHT22;10742;51.816;8.662;2023-03-14T00:44:47;15.70;90.90
21169;DHT22;10742;51.816;8.662;2023-03-14T00:47:49;15.70;90.90
21169;DHT22;10742;51.816;8.662;2023-03-14T00:50:52;15.60;90.80
21169;DHT22;10742;51.816;8.662;2023-03-14T00:53:54;15.70;90.80
21169;DHT22;10742;51.816;8.662;2023-03-14T00:56:56;15.70;90.90
21169;DHT22;10742;51.816;8.662;2023-03-14T00:59:58;15.60;90.90
21169;DHT22;10742;51.816;8.662;2023-03-14T01:03:01;15.60;90.90
21169;DHT22;10742;51.816;8.662;2023-03-14T01:06:13;15.60;90.90
21169;DHT22;10742;51.816;8.662;2023-03-14T01:09:17;15.60;91.00
21169;DHT22;10742;51.816;8.662;2023-03-14T01:12:19;15.60;91.00
21169;DHT22;10742;51.816;8.662;2023-03-14T01:15:22;15.60;91.00
21169;DHT22;10742;51.816;8.662;2023-03-14T01:18:24;15.60;91.10
21169;DHT22;10742;51.816;8.662;2023-03-14T01:21:34;15.50;91.10
21169;DHT22;10742;51.816;8.662;2023-03-14T01:24:37;15.50;91.10
21169;DHT22;10742;51.816;8.662;2023-03-14T01:27:39;15.60;91.10
21169;DHT22;10742;51.816;8.662;2023-03-14T01:30:42;15.60;91.10
21169;DHT22;10742;51.816;8.662;2023-03-14T01:33:45;15.60;91.00
21169;DHT22;10742;51.816;8.662;2023-03-14T01:36:47;15.60;91.00
21169;DHT22;10742;51.816;8.662;2023-03-14T01:39:50;15.60;91.00
21169;DHT22;10742;51.816;8.662;2023-03-14T01:42:58;15.60;90.90
21169;DHT22;10742;51.816;8.662;2023-03-14T01:52:31;15.50;90.90
21169;DHT22;10742;51.816;8.662;2023-03-14T01:55:36;15.50;90.90
21169;DHT22;10742;51.816;8.662;2023-03-14T01:58:39;15.50;90.90
21169;DHT22;10742;51.816;8.662;2023-03-14T02:01:44;15.60;91.00
21169;DHT22;10742;51.816;8.662;2023-03-14T02:04:47;15.50;90.90
21169;DHT22;10742;51.816;8.662;2023-03-14T02:07:57;15.50;90.90
21169;DHT22;10742;51.816;8.662;2023-03-14T02:11:07;15.50;91.00
21169;DHT22;10742;51.816;8.662;2023-03-14T02:14:32;15.60;91.00
21169;DHT22;10742;51.816;8.662;2023-03-14T02:17:57;15.50;90.90
21169;DHT22;10742;51.816;8.662;2023-03-14T02:21:34;15.60;90.90
21169;DHT22;10742;51.816;8.662;2023-03-14T02:28:24;15.60;90.90
21169;DHT22;10742;51.816;8.662;2023-03-14T02:31:30;15.60;90.90
21169;DHT22;10742;51.816;8.662;2023-03-14T02:34:33;15.60;90.90
21169;DHT22;10742;51.816;8.662;2023-03-14T02:37:43;15.60;91.00
21169;DHT22;10742;51.816;8.662;2023-03-14T02:40:49;15.60;91.10
21169;DHT22;10742;51.816;8.662;2023-03-14T02:43:52;15.60;91.20
21169;DHT22;10742;51.816;8.662;2023-03-14T02:46:54;15.60;91.40
21169;DHT22;10742;51.816;8.662;2023-03-14T02:50:03;15.50;91.40
21169;DHT22;10742;51.816;8.662;2023-03-14T02:53:06;15.50;91.70
21169;DHT22;10742;51.816;8.662;2023-03-14T02:56:09;15.40;91.60
21169;DHT22;10742;51.816;8.662;2023-03-14T02:59:12;15.40;91.70
21169;DHT22;10742;51.816;8.662;2023-03-14T03:02:29;15.30;91.50
21169;DHT22;10742;51.816;8.662;2023-03-14T03:05:33;15.20;91.60
21169;DHT22;10742;51.816;8.662;2023-03-14T03:08:37;15.00;91.50
21169;DHT22;10742;51.816;8.662;2023-03-14T03:11:39;14.90;91.50
21169;DHT22;10742;51.816;8.662;2023-03-14T03:14:42;14.80;91.60
21169;DHT22;10742;51.816;8.662;2023-03-14T03:17:44;14.70;91.60
21169;DHT22;10742;51.816;8.662;2023-03-14T03:20:46;14.60;91.70
21169;DHT22;10742;51.816;8.662;2023-03-14T03:23:50;14.50;91.80
21169;DHT22;10742;51.816;8.662;2023-03-14T03:26:53;14.50;91.90
21169;DHT22;10742;51.816;8.662;2023-03-14T03:29:55;14.40;91.90
21169;DHT22;10742;51.816;8.662;2023-03-14T03:32:58;14.30;92.00
21169;DHT22;10742;51.816;8.662;2023-03-14T03:36:00;14.30;92.10
21169;DHT22;10742;51.816;8.662;2023-03-14T03:39:06;14.30;92.20
21169;DHT22;10742;51.816;8.662;2023-03-14T03:42:09;14.20;92.20
21169;DHT22;10742;51.816;8.662;2023-03-14T03:45:12;14.10;92.30
21169;DHT22;10742;51.816;8.662;2023-03-14T03:48:23;14.10;92.30
21169;DHT22;10742;51.816;8.662;2023-03-14T03:51:26;14.10;92.30
21169;DHT22;10742;51.816;8.662;2023-03-14T03:54:28;14.00;92.40
21169;DHT22;10742;51.816;8.662;2023-03-14T03:57:31;14.00;92.40
21169;DHT22;10742;51.816;8.662;2023-03-14T04:00:33;14.00;92.50
21169;DHT22;10742;51.816;8.662;2023-03-14T04:03:36;13.90;92.60
21169;DHT22;10742;51.816;8.662;2023-03-14T04:06:40;13.90;92.60
21169;DHT22;10742;51.816;8.662;2023-03-14T04:09:44;13.90;92.70
21169;DHT22;10742;51.816;8.662;2023-03-14T04:13:05;13.90;92.80
21169;DHT22;10742;51.816;8.662;2023-03-14T04:16:21;13.90;92.80
21169;DHT22;10742;51.816;8.662;2023-03-14T04:19:25;13.90;93.00
21169;DHT22;10742;51.816;8.662;2023-03-14T04:22:30;13.90;92.80
21169;DHT22;10742;51.816;8.662;2023-03-14T04:25:35;13.90;92.80
21169;DHT22;10742;51.816;8.662;2023-03-14T04:28:39;13.90;92.80
21169;DHT22;10742;51.816;8.662;2023-03-14T04:31:43;13.90;92.80
21169;DHT22;10742;51.816;8.662;2023-03-14T04:34:45;13.90;92.80
21169;DHT22;10742;51.816;8.662;2023-03-14T04:37:48;13.90;92.80
21169;DHT22;10742;51.816;8.662;2023-03-14T04:40:51;13.90;92.80
21169;DHT22;10742;51.816;8.662;2023-03-14T04:43:56;13.90;92.80
21169;DHT22;10742;51.816;8.662;2023-03-14T04:46:59;13.90;92.80
21169;DHT22;10742;51.816;8.662;2023-03-14T04:50:02;13.80;92.80
21169;DHT22;10742;51.816;8.662;2023-03-14T04:53:05;13.80;92.80
21169;DHT22;10742;51.816;8.662;2023-03-14T04:56:08;13.80;92.80
21169;DHT22;10742;51.816;8.662;2023-03-14T04:59:13;13.80;92.80
21169;DHT22;10742;51.816;8.662;2023-03-14T05:02:17;13.80;92.90
21169;DHT22;10742;51.816;8.662;2023-03-14T05:05:51;13.80;92.90
21169;DHT22;10742;51.816;8.662;2023-03-14T05:09:14;13.80;92.90
21169;DHT22;10742;51.816;8.662;2023-03-14T05:12:17;13.80;93.00
21169;DHT22;10742;51.816;8.662;2023-03-14T05:15:28;13.80;93.00
21169;DHT22;10742;51.816;8.662;2023-03-14T05:18:50;13.80;93.10
21169;DHT22;10742;51.816;8.662;2023-03-14T05:22:11;13.80;93.20
21169;DHT22;10742;51.816;8.662;2023-03-14T05:25:45;13.80;93.30
21169;DHT22;10742;51.816;8.662;2023-03-14T05:29:03;13.80;93.30
21169;DHT22;10742;51.816;8.662;2023-03-14T05:32:25;13.70;93.30
21169;DHT22;10742;51.816;8.662;2023-03-14T05:35:47;13.70;93.40
21169;DHT22;10742;51.816;8.662;2023-03-14T05:38:51;13.70;93.50
21169;DHT22;10742;51.816;8.662;2023-03-14T05:42:11;13.70;93.60
21169;DHT22;10742;51.816;8.662;2023-03-14T05:45:34;13.70;93.60
21169;DHT22;10742;51.816;8.662;2023-03-14T05:49:08;13.70;93.70
21169;DHT22;10742;51.816;8.662;2023-03-14T05:52:24;13.70;93.70
21169;DHT22;10742;51.816;8.662;2023-03-14T05:56:01;13.70;93.70
21169;DHT22;10742;51.816;8.662;2023-03-14T05:59:14;13.70;93.80
21169;DHT22;10742;51.816;8.662;2023-03-14T06:02:43;13.70;94.00
21169;DHT22;10742;51.816;8.662;2023-03-14T06:05:55;13.60;94.00
21169;DHT22;10742;51.816;8.662;2023-03-14T06:08:58;13.60;94.00
21169;DHT22;10742;51.816;8.662;2023-03-14T06:12:01;13.40;96.10
21169;DHT22;10742;51.816;8.662;2023-03-14T06:15:10;13.40;95.70
21169;DHT22;10742;51.816;8.662;2023-03-14T06:18:13;13.50;95.40
21169;DHT22;10742;51.816;8.662;2023-03-14T06:21:17;13.50;95.30
21169;DHT22;10742;51.816;8.662;2023-03-14T06:24:21;13.60;95.20
21169;DHT22;10742;51.816;8.662;2023-03-14T06:27:26;13.60;95.10
21169;DHT22;10742;51.816;8.662;2023-03-14T06:30:33;13.60;95.10
21169;DHT22;10742;51.816;8.662;2023-03-14T06:33:36;13.70;95.30
21169;DHT22;10742;51.816;8.662;2023-03-14T06:36:39;13.70;95.10
21169;DHT22;10742;51.816;8.662;2023-03-14T06:39:42;13.70;95.20
21169;DHT22;10742;51.816;8.662;2023-03-14T06:42:54;13.70;95.20
21169;DHT22;10742;51.816;8.662;2023-03-14T06:45:58;13.70;95.20
21169;DHT22;10742;51.816;8.662;2023-03-14T06:49:01;13.80;95.20
21169;DHT22;10742;51.816;8.662;2023-03-14T06:52:04;13.80;95.20
21169;DHT22;10742;51.816;8.662;2023-03-14T06:55:08;13.80;95.20
21169;DHT22;10742;51.816;8.662;2023-03-14T06:58:11;13.80;95.20
21169;DHT22;10742;51.816;8.662;2023-03-14T07:01:22;13.80;95.00
21169;DHT22;10742;51.816;8.662;2023-03-14T07:04:26;13.80;95.20
21169;DHT22;10742;51.816;8.662;2023-03-14T07:07:29;13.80;95.00
21169;DHT22;10742;51.816;8.662;2023-03-14T07:10:31;13.70;95.00
21169;DHT22;10742;51.816;8.662;2023-03-14T07:13:33;13.70;95.10
21169;DHT22;10742;51.816;8.662;2023-03-14T07:16:39;13.70;95.10
21169;DHT22;10742;51.816;8.662;2023-03-14T07:19:43;13.70;95.20
21169;DHT22;10742;51.816;8.662;2023-03-14T07:22:47;13.70;95.30
21169;DHT22;10742;51.816;8.662;2023-03-14T07:25:55;13.70;95.80
21169;DHT22;10742;51.816;8.662;2023-03-14T07:28:59;13.70;95.50
21169;DHT22;10742;51.816;8.662;2023-03-14T07:32:02;13.70;95.40
21169;DHT22;10742;51.816;8.662;2023-03-14T07:35:05;13.80;95.50
21169;DHT22;10742;51.816;8.662;2023-03-14T07:38:11;13.80;95.50
21169;DHT22;10742;51.816;8.662;2023-03-14T07:41:26;13.80;95.50
21169;DHT22;10742;51.816;8.662;2023-03-14T07:44:47;13.80;95.60
21169;DHT22;10742;51.816;8.662;2023-03-14T07:47:49;13.90;95.60
21169;DHT22;10742;51.816;8.662;2023-03-14T07:50:53;13.90;95.70
21169;DHT22;10742;51.816;8.662;2023-03-14T07:53:55;14.00;95.80
21169;DHT22;10742;51.816;8.662;2023-03-14T07:56:57;14.00;95.80
21169;DHT22;10742;51.816;8.662;2023-03-14T08:00:02;14.00;95.90
21169;DHT22;10742;51.816;8.662;2023-03-14T08:03:14;14.00;95.90
21169;DHT22;10742;51.816;8.662;2023-03-14T08:06:16;14.10;96.00
21169;DHT22;10742;51.816;8.662;2023-03-14T08:09:19;14.20;96.00
21169;DHT22;10742;51.816;8.662;2023-03-14T08:12:21;14.20;96.00
21169;DHT22;10742;51.816;8.662;2023-03-14T08:15:24;14.30;96.00
21169;DHT22;10742;51.816;8.662;2023-03-14T08:18:26;14.40;95.90
21169;DHT22;10742;51.816;8.662;2023-03-14T08:21:28;14.40;95.80
21169;DHT22;10742;51.816;8.662;2023-03-14T08:24:31;14.50;95.80
21169;DHT22;10742;51.816;8.662;2023-03-14T08:27:33;14.60;95.70
21169;DHT22;10742;51.816;8.662;2023-03-14T08:30:35;14.60;95.50
21169;DHT22;10742;51.816;8.662;2023-03-14T08:33:38;14.60;95.60
21169;DHT22;10742;51.816;8.662;2023-03-14T08:36:40;14.70;95.50
21169;DHT22;10742;51.816;8.662;2023-03-14T08:39:42;14.70;95.50
21169;DHT22;10742;51.816;8.662;2023-03-14T08:42:45;14.80;95.50
21169;DHT22;10742;51.816;8.662;2023-03-14T08:45:47;14.80;95.50
21169;DHT22;10742;51.816;8.662;2023-03-14T08:48:50;14.90;95.40
21169;DHT22;10742;51.816;8.662;2023-03-14T08:51:52;14.90;95.30
21169;DHT22;10742;51.816;8.662;2023-03-14T08:54:54;15.00;95.20
21169;DHT22;10742;51.816;8.662;2023-03-14T08:57:56;15.00;95.20
21169;DHT22;10742;51.816;8.662;2023-03-14T09:00:59;15.00;95.20
21169;DHT22;10742;51.816;8.662;2023-03-14T09:04:01;15.00;95.10
21169;DHT22;10742;51.816;8.662;2023-03-14T09:07:04;15.00;95.10
21169;DHT22;10742;51.816;8.662;2023-03-14T09:10:08;15.10;95.10
21169;DHT22;10742;51.816;8.662;2023-03-14T09:13:11;15.20;95.10
21169;DHT22;10742;51.816;8.662;2023-03-14T09:16:13;15.20;95.10
21169;DHT22;10742;51.816;8.662;2023-03-14T09:19:16;15.30;95.10
21169;DHT22;10742;51.816;8.662;2023-03-14T09:22:18;15.40;95.10
21169;DHT22;10742;51.816;8.662;2023-03-14T09:25:20;15.40;95.00
21169;DHT22;10742;51.816;8.662;2023-03-14T09:28:24;15.50;95.10
21169;DHT22;10742;51.816;8.662;2023-03-14T09:31:27;15.50;95.00
21169;DHT22;10742;51.816;8.662;2023-03-14T09:34:30;15.60;95.10
21169;DHT22;10742;51.816;8.662;2023-03-14T09:37:32;15.60;95.20
21169;DHT22;10742;51.816;8.662;2023-03-14T09:40:36;15.70;95.20
21169;DHT22;10742;51.816;8.662;2023-03-14T09:43:39;15.80;95.30
21169;DHT22;10742;51.816;8.662;2023-03-14T09:46:45;15.80;95.20
21169;DHT22;10742;51.816;8.662;2023-03-14T09:49:51;15.90;95.20
21169;DHT22;10742;51.816;8.662;2023-03-14T09:52:57;16.00;94.90
21169;DHT22;10742;51.816;8.662;2023-03-14T09:56:01;16.00;94.70
21169;DHT22;10742;51.816;8.662;2023-03-14T09:59:05;16.10;94.60
21169;DHT22;10742;51.816;8.662;2023-03-14T10:02:20;16.10;94.40
21169;DHT22;10742;51.816;8.662;2023-03-14T10:05:24;16.10;94.40
21169;DHT22;10742;51.816;8.662;2023-03-14T10:08:27;16.10;94.30
21169;DHT22;10742;51.816;8.662;2023-03-14T10:11:29;16.10;94.40
21169;DHT22;10742;51.816;8.662;2023-03-14T10:14:34;16.10;94.40
21169;DHT22;10742;51.816;8.662;2023-03-14T10:17:42;16.10;94.80
21169;DHT22;10742;51.816;8.662;2023-03-14T10:20:49;16.10;94.40
21169;DHT22;10742;51.816;8.662;2023-03-14T10:23:52;16.10;94.50
21169;DHT22;10742;51.816;8.662;2023-03-14T10:26:57;16.10;94.40
21169;DHT22;10742;51.816;8.662;2023-03-14T10:30:06;16.10;94.40
21169;DHT22;10742;51.816;8.662;2023-03-14T10:33:30;16.10;94.50
21169;DHT22;10742;51.816;8.662;2023-03-14T10:36:33;16.10;94.60
21169;DHT22;10742;51.816;8.662;2023-03-14T10:39:48;16.10;94.40
21169;DHT22;10742;51.816;8.662;2023-03-14T10:42:51;16.10;94.50
21169;DHT22;10742;51.816;8.662;2023-03-14T10:45:57;16.00;94.30
21169;DHT22;10742;51.816;8.662;2023-03-14T10:49:04;15.90;94.30
21169;DHT22;10742;51.816;8.662;2023-03-14T10:52:19;15.80;94.20
21169;DHT22;10742;51.816;8.662;2023-03-14T10:55:41;15.70;94.20
21169;DHT22;10742;51.816;8.662;2023-03-14T10:58:45;15.60;94.10
21169;DHT22;10742;51.816;8.662;2023-03-14T11:01:54;15.50;94.00
21169;DHT22;10742;51.816;8.662;2023-03-14T11:12:10;15.00;93.30
21169;DHT22;10742;51.816;8.662;2023-03-14T11:15:27;14.90;93.30
21169;DHT22;10742;51.816;8.662;2023-03-14T11:19:11;14.70;93.30
21169;DHT22;10742;51.816;8.662;2023-03-14T11:22:24;14.40;93.40
21169;DHT22;10742;51.816;8.662;2023-03-14T11:25:38;14.20;93.50
21169;DHT22;10742;51.816;8.662;2023-03-14T11:28:47;14.10;93.60
21169;DHT22;10742;51.816;8.662;2023-03-14T11:31:55;13.90;93.80
21169;DHT22;10742;51.816;8.662;2023-03-14T11:35:03;13.80;93.90
21169;DHT22;10742;51.816;8.662;2023-03-14T11:38:36;13.60;93.90
21169;DHT22;10742;51.816;8.662;2023-03-14T11:41:45;13.50;93.80
21169;DHT22;10742;51.816;8.662;2023-03-14T11:44:49;13.40;93.80
21169;DHT22;10742;51.816;8.662;2023-03-14T11:48:19;13.30;93.90
21169;DHT22;10742;51.816;8.662;2023-03-14T11:51:28;13.20;93.60
21169;DHT22;10742;51.816;8.662;2023-03-14T11:54:40;13.00;93.60
21169;DHT22;10742;51.816;8.662;2023-03-14T11:57:46;12.80;93.30
21169;DHT22;10742;51.816;8.662;2023-03-14T12:00:51;12.70;93.10
21169;DHT22;10742;51.816;8.662;2023-03-14T12:04:11;12.50;92.90
21169;DHT22;10742;51.816;8.662;2023-03-14T12:11:12;11.90;92.20
21169;DHT22;10742;51.816;8.662;2023-03-14T12:14:34;11.50;92.30
21169;DHT22;10742;51.816;8.662;2023-03-14T12:17:37;11.30;92.60
21169;DHT22;10742;51.816;8.662;2023-03-14T12:20:40;11.00;92.80
21169;DHT22;10742;51.816;8.662;2023-03-14T12:23:53;10.90;93.00
21169;DHT22;10742;51.816;8.662;2023-03-14T12:26:58;10.70;93.30
21169;DHT22;10742;51.816;8.662;2023-03-14T12:30:01;10.60;93.40
21169;DHT22;10742;51.816;8.662;2023-03-14T12:36:18;10.50;93.60
21169;DHT22;10742;51.816;8.662;2023-03-14T12:42:57;10.40;93.30
21169;DHT22;10742;51.816;8.662;2023-03-14T12:46:21;10.40;93.30
21169;DHT22;10742;51.816;8.662;2023-03-14T12:49:30;10.30;93.40
21169;DHT22;10742;51.816;8.662;2023-03-14T12:52:47;10.30;93.30
21169;DHT22;10742;51.816;8.662;2023-03-14T12:59:37;10.20;93.60
21169;DHT22;10742;51.816;8.662;2023-03-14T13:02:44;10.30;93.70
21169;DHT22;10742;51.816;8.662;2023-03-14T13:05:52;10.40;93.50
21169;DHT22;10742;51.816;8.662;2023-03-14T13:08:55;10.40;93.40
21169;DHT22;10742;51.816;8.662;2023-03-14T13:12:13;10.50;93.60
21169;DHT22;10742;51.816;8.662;2023-03-14T13:18:41;10.60;93.40
21169;DHT22;10742;51.816;8.662;2023-03-14T13:21:44;10.60;93.40
21169;DHT22;10742;51.816;8.662;2023-03-14T13:24:46;10.70;93.40
21169;DHT22;10742;51.816;8.662;2023-03-14T13:27:52;10.80;93.40
21169;DHT22;10742;51.816;8.662;2023-03-14T13:31:00;10.80;93.30
21169;DHT22;10742;51.816;8.662;2023-03-14T13:34:07;10.90;93.10
21169;DHT22;10742;51.816;8.662;2023-03-14T13:37:23;11.00;93.00
21169;DHT22;10742;51.816;8.662;2023-03-14T13:40:33;11.00;92.80
21169;DHT22;10742;51.816;8.662;2023-03-14T13:43:39;11.00;92.80
21169;DHT22;10742;51.816;8.662;2023-03-14T13:46:43;11.10;92.70
21169;DHT22;10742;51.816;8.662;2023-03-14T13:49:46;11.10;92.80
21169;DHT22;10742;51.816;8.662;2023-03-14T13:52:55;11.10;92.60
21169;DHT22;10742;51.816;8.662;2023-03-14T13:56:02;11.00;92.20
21169;DHT22;10742;51.816;8.662;2023-03-14T13:59:21;11.00;92.20
21169;DHT22;10742;51.816;8.662;2023-03-14T14:02:24;10.90;92.40
21169;DHT22;10742;51.816;8.662;2023-03-14T14:05:28;10.80;92.30
21169;DHT22;10742;51.816;8.662;2023-03-14T14:08:31;10.70;92.50
21169;DHT22;10742;51.816;8.662;2023-03-14T14:11:48;10.70;92.50
21169;DHT22;10742;51.816;8.662;2023-03-14T14:15:16;10.60;92.60
21169;DHT22;10742;51.816;8.662;2023-03-14T14:18:25;10.60;92.90
21169;DHT22;10742;51.816;8.662;2023-03-14T14:21:31;10.60;93.10
21169;DHT22;10742;51.816;8.662;2023-03-14T14:24:36;10.60;93.20
21169;DHT22;10742;51.816;8.662;2023-03-14T14:27:42;10.60;93.30
21169;DHT22;10742;51.816;8.662;2023-03-14T14:30:44;10.70;93.80
21169;DHT22;10742;51.816;8.662;2023-03-14T14:33:57;10.70;93.50
21169;DHT22;10742;51.816;8.662;2023-03-14T14:37:00;10.80;93.40
21169;DHT22;10742;51.816;8.662;2023-03-14T14:40:23;10.90;93.40
21169;DHT22;10742;51.816;8.662;2023-03-14T14:43:28;10.90;93.20
21169;DHT22;10742;51.816;8.662;2023-03-14T14:46:49;11.00;93.20
21169;DHT22;10742;51.816;8.662;2023-03-14T14:54:20;11.10;93.10
21169;DHT22;10742;51.816;8.662;2023-03-14T14:57:54;11.10;92.70
21169;DHT22;10742;51.816;8.662;2023-03-14T15:01:17;11.20;92.40
21169;DHT22;10742;51.816;8.662;2023-03-14T15:04:39;11.20;92.30
21169;DHT22;10742;51.816;8.662;2023-03-14T15:08:00;11.20;92.10
21169;DHT22;10742;51.816;8.662;2023-03-14T15:11:24;11.20;91.90
21169;DHT22;10742;51.816;8.662;2023-03-14T15:14:45;11.20;91.20
21169;DHT22;10742;51.816;8.662;2023-03-14T15:18:15;11.10;91.10
21169;DHT22;10742;51.816;8.662;2023-03-14T15:21:37;11.10;90.20
21169;DHT22;10742;51.816;8.662;2023-03-14T15:24:57;11.00;90.50
21169;DHT22;10742;51.816;8.662;2023-03-14T15:28:21;11.00;90.70
21169;DHT22;10742;51.816;8.662;2023-03-14T15:31:43;11.00;90.60
21169;DHT22;10742;51.816;8.662;2023-03-14T15:34:46;11.00;90.10
21169;DHT22;10742;51.816;8.662;2023-03-14T15:37:48;11.00;90.30
21169;DHT22;10742;51.816;8.662;2023-03-14T15:40:51;11.00;90.00
21169;DHT22;10742;51.816;8.662;2023-03-14T15:43:54;11.00;89.70
21169;DHT22;10742;51.816;8.662;2023-03-14T15:46:57;11.00;89.60
21169;DHT22;10742;51.816;8.662;2023-03-14T15:49:59;11.00;88.80
21169;DHT22;10742;51.816;8.662;2023-03-14T15:53:01;11.00;88.50
21169;DHT22;10742;51.816;8.662;2023-03-14T15:56:11;11.10;88.10
21169;DHT22;10742;51.816;8.662;2023-03-14T15:59:14;11.10;87.30
21169;DHT22;10742;51.816;8.662;2023-03-14T16:02:16;11.10;88.10
21169;DHT22;10742;51.816;8.662;2023-03-14T16:05:18;11.20;87.40
21169;DHT22;10742;51.816;8.662;2023-03-14T16:08:23;11.20;87.00
21169;DHT22;10742;51.816;8.662;2023-03-14T16:11:27;11.20;86.10
21169;DHT22;10742;51.816;8.662;2023-03-14T16:14:29;11.20;85.90
21169;DHT22;10742;51.816;8.662;2023-03-14T16:17:32;11.20;85.20
21169;DHT22;10742;51.816;8.662;2023-03-14T16:20:34;11.20;84.80
21169;DHT22;10742;51.816;8.662;2023-03-14T16:23:48;11.20;84.50
21169;DHT22;10742;51.816;8.662;2023-03-14T16:26:51;11.20;84.50
21169;DHT22;10742;51.816;8.662;2023-03-14T16:29:53;11.10;84.20
21169;DHT22;10742;51.816;8.662;2023-03-14T16:32:55;11.10;84.60
21169;DHT22;10742;51.816;8.662;2023-03-14T16:36:01;11.20;85.80
21169;DHT22;10742;51.816;8.662;2023-03-14T16:39:07;11.20;85.70
21169;DHT22;10742;51.816;8.662;2023-03-14T16:42:09;11.30;85.60
21169;DHT22;10742;51.816;8.662;2023-03-14T16:45:11;11.40;84.80
21169;DHT22;10742;51.816;8.662;2023-03-14T16:48:13;11.50;84.00
21169;DHT22;10742;51.816;8.662;2023-03-14T16:51:16;11.50;83.30
21169;DHT22;10742;51.816;8.662;2023-03-14T16:54:18;11.50;83.00
21169;DHT22;10742;51.816;8.662;2023-03-14T16:57:20;11.50;82.70
21169;DHT22;10742;51.816;8.662;2023-03-14T17:00:23;11.40;82.50
21169;DHT22;10742;51.816;8.662;2023-03-14T17:03:25;11.40;82.40
21169;DHT22;10742;51.816;8.662;2023-03-14T17:06:28;11.30;82.10
21169;DHT22;10742;51.816;8.662;2023-03-14T17:09:31;11.30;82.00
21169;DHT22;10742;51.816;8.662;2023-03-14T17:12:33;11.20;81.50
21169;DHT22;10742;51.816;8.662;2023-03-14T17:15:36;11.10;81.40
21169;DHT22;10742;51.816;8.662;2023-03-14T17:18:38;11.10;80.90
21169;DHT22;10742;51.816;8.662;2023-03-14T17:21:40;11.00;80.60
21169;DHT22;10742;51.816;8.662;2023-03-14T17:24:43;10.90;80.70
21169;DHT22;10742;51.816;8.662;2023-03-14T17:27:45;10.80;80.80
21169;DHT22;10742;51.816;8.662;2023-03-14T17:30:47;10.70;80.90
21169;DHT22;10742;51.816;8.662;2023-03-14T17:33:50;10.70;81.20
21169;DHT22;10742;51.816;8.662;2023-03-14T17:36:56;10.60;81.30
21169;DHT22;10742;51.816;8.662;2023-03-14T17:39:58;10.60;81.60
21169;DHT22;10742;51.816;8.662;2023-03-14T17:43:02;10.60;81.50
21169;DHT22;10742;51.816;8.662;2023-03-14T17:46:07;10.60;81.30
21169;DHT22;10742;51.816;8.662;2023-03-14T17:49:13;10.60;81.10
21169;DHT22;10742;51.816;8.662;2023-03-14T17:52:15;10.60;81.40
21169;DHT22;10742;51.816;8.662;2023-03-14T17:55:17;10.60;81.30
21169;DHT22;10742;51.816;8.662;2023-03-14T17:58:20;10.50;81.20
21169;DHT22;10742;51.816;8.662;2023-03-14T18:01:22;10.50;81.20
21169;DHT22;10742;51.816;8.662;2023-03-14T18:04:24;10.50;80.80
21169;DHT22;10742;51.816;8.662;2023-03-14T18:07:27;10.50;80.50
21169;DHT22;10742;51.816;8.662;2023-03-14T18:10:29;10.40;80.40
21169;DHT22;10742;51.816;8.662;2023-03-14T18:13:32;10.30;80.30
21169;DHT22;10742;51.816;8.662;2023-03-14T18:16:34;10.30;80.20
21169;DHT22;10742;51.816;8.662;2023-03-14T18:19:37;10.20;80.10
21169;DHT22;10742;51.816;8.662;2023-03-14T18:22:40;10.20;80.20
21169;DHT22;10742;51.816;8.662;2023-03-14T18:25:43;10.20;80.00
21169;DHT22;10742;51.816;8.662;2023-03-14T18:28:45;10.10;79.90
21169;DHT22;10742;51.816;8.662;2023-03-14T18:31:48;10.10;79.80
21169;DHT22;10742;51.816;8.662;2023-03-14T18:34:50;10.10;80.00
21169;DHT22;10742;51.816;8.662;2023-03-14T18:37:52;10.00;79.90
21169;DHT22;10742;51.816;8.662;2023-03-14T18:40:55;10.00;80.00
21169;DHT22;10742;51.816;8.662;2023-03-14T18:43:57;10.00;80.30
21169;DHT22;10742;51.816;8.662;2023-03-14T18:46:59;9.60;78.00
21169;DHT22;10742;51.816;8.662;2023-03-14T18:50:04;9.60;79.80
21169;DHT22;10742;51.816;8.662;2023-03-14T18:53:06;9.70;79.90
21169;DHT22;10742;51.816;8.662;2023-03-14T18:56:09;9.80;79.80
21169;DHT22;10742;51.816;8.662;2023-03-14T18:59:15;9.90;79.50
21169;DHT22;10742;51.816;8.662;2023-03-14T19:02:18;9.90;79.50
21169;DHT22;10742;51.816;8.662;2023-03-14T19:05:20;9.90;79.30
21169;DHT22;10742;51.816;8.662;2023-03-14T19:08:24;9.80;79.10
21169;DHT22;10742;51.816;8.662;2023-03-14T19:11:26;9.80;78.90
21169;DHT22;10742;51.816;8.662;2023-03-14T19:14:29;9.80;78.80
21169;DHT22;10742;51.816;8.662;2023-03-14T19:17:31;9.80;78.90
21169;DHT22;10742;51.816;8.662;2023-03-14T19:20:34;9.70;78.70
21169;DHT22;10742;51.816;8.662;2023-03-14T19:23:38;9.70;78.70
21169;DHT22;10742;51.816;8.662;2023-03-14T19:26:41;9.70;78.20
21169;DHT22;10742;51.816;8.662;2023-03-14T19:29:43;9.60;78.40
21169;DHT22;10742;51.816;8.662;2023-03-14T19:32:45;9.60;78.30
21169;DHT22;10742;51.816;8.662;2023-03-14T19:35:48;9.60;78.40
21169;DHT22;10742;51.816;8.662;2023-03-14T19:38:50;9.50;78.40
21169;DHT22;10742;51.816;8.662;2023-03-14T19:41:53;9.50;78.40
21169;DHT22;10742;51.816;8.662;2023-03-14T19:44:59;9.50;78.50
21169;DHT22;10742;51.816;8.662;2023-03-14T19:48:03;9.40;78.50
21169;DHT22;10742;51.816;8.662;2023-03-14T19:51:06;9.40;78.40
21169;DHT22;10742;51.816;8.662;2023-03-14T19:54:08;9.40;78.60
21169;DHT22;10742;51.816;8.662;2023-03-14T19:57:10;9.40;78.70
21169;DHT22;10742;51.816;8.662;2023-03-14T20:00:13;9.30;78.70
21169;DHT22;10742;51.816;8.662;2023-03-14T20:03:18;9.30;79.40
21169;DHT22;10742;51.816;8.662;2023-03-14T20:06:20;9.30;78.80
21169;DHT22;10742;51.816;8.662;2023-03-14T20:09:23;9.30;78.80
21169;DHT22;10742;51.816;8.662;2023-03-14T20:12:29;9.20;78.80
21169;DHT22;10742;51.816;8.662;2023-03-14T20:15:32;9.20;78.70
21169;DHT22;10742;51.816;8.662;2023-03-14T20:18:35;9.10;79.00
21169;DHT22;10742;51.816;8.662;2023-03-14T20:21:37;9.20;79.20